createdAt,value
2019-05-19T00:00:48.850Z,80.60
2019-05-19T00:03:17.546Z,78.80
2019-05-19T00:05:46.255Z,78.80
2019-05-19T00:08:15.039Z,80.10
2019-05-19T00:10:43.826Z,78.80
2019-05-19T00:13:12.514Z,77.40
2019-05-19T00:15:41.306Z,76.90
2019-05-19T00:18:09.988Z,77.20
2019-05-19T00:20:38.776Z,77.90
2019-05-19T00:23:07.473Z,78.30
2019-05-19T00:25:36.176Z,77.70
2019-05-19T00:28:04.981Z,77.60
2019-05-19T00:30:33.683Z,78.80
2019-05-19T00:33:02.450Z,78.30
2019-05-19T00:35:31.201Z,79.00
2019-05-19T00:37:59.889Z,79.20
2019-05-19T00:40:28.576Z,79.90
2019-05-19T00:42:57.344Z,79.60
2019-05-19T00:45:26.052Z,80.70
2019-05-19T00:47:54.760Z,81.20
2019-05-19T00:50:23.465Z,81.10
2019-05-19T00:52:52.164Z,80.70
2019-05-19T00:55:20.867Z,80.20
2019-05-19T00:57:50.549Z,80.70
2019-05-19T01:00:21.320Z,82.40
2019-05-19T01:02:50.039Z,80.50
2019-05-19T01:05:20.679Z,79.20
2019-05-19T01:07:49.083Z,78.50
2019-05-19T01:10:17.881Z,77.50
2019-05-19T01:12:46.580Z,77.20
2019-05-19T01:15:15.860Z,75.10
2019-05-19T01:17:44.639Z,75.70
2019-05-19T01:20:13.549Z,76.10
2019-05-19T01:22:42.259Z,75.90
2019-05-19T01:25:11.043Z,76.50
2019-05-19T01:27:39.732Z,78.00
2019-05-19T01:30:11.023Z,77.70
2019-05-19T01:32:39.707Z,77.30
2019-05-19T01:35:08.711Z,76.80
2019-05-19T01:37:37.413Z,76.60
2019-05-19T01:40:07.615Z,76.40
2019-05-19T01:42:36.621Z,75.00
2019-05-19T01:45:07.149Z,77.10
2019-05-19T01:47:35.928Z,77.40
2019-05-19T01:50:17.563Z,75.70
2019-05-19T01:52:36.485Z,76.60
2019-05-19T01:55:06.571Z,76.00
2019-05-19T01:57:35.271Z,75.70
2019-05-19T02:00:06.748Z,77.10
2019-05-19T02:02:35.456Z,77.80
2019-05-19T02:05:07.953Z,77.00
2019-05-19T02:07:36.700Z,76.90
2019-05-19T02:10:09.962Z,76.80
2019-05-19T02:12:38.642Z,76.90
2019-05-19T02:15:08.141Z,76.50
2019-05-19T02:17:36.915Z,76.50
2019-05-19T02:20:09.783Z,76.10
2019-05-19T02:22:38.477Z,76.10
2019-05-19T02:25:08.166Z,76.60
2019-05-19T02:27:36.883Z,75.30
2019-05-19T02:30:07.593Z,77.40
2019-05-19T02:32:36.294Z,77.00
2019-05-19T02:35:08.602Z,75.80
2019-05-19T02:37:37.387Z,75.40
2019-05-19T02:40:07.733Z,75.60
2019-05-19T02:42:41.742Z,76.60
2019-05-19T02:45:11.147Z,76.30
2019-05-19T02:47:43.865Z,74.10
2019-05-19T02:50:13.174Z,74.70
2019-05-19T02:52:43.669Z,75.10
2019-05-19T02:55:12.455Z,74.50
2019-05-19T02:57:42.465Z,73.90
2019-05-19T03:00:11.940Z,76.60
2019-05-19T03:02:40.715Z,75.80
2019-05-19T03:05:09.734Z,76.10
2019-05-19T03:07:38.440Z,74.20
2019-05-19T03:10:08.643Z,74.50
2019-05-19T03:12:37.414Z,74.20
2019-05-19T03:15:06.922Z,74.70
2019-05-19T03:17:35.693Z,74.50
2019-05-19T03:20:06.277Z,72.20
2019-05-19T03:22:34.979Z,73.40
2019-05-19T03:25:04.792Z,73.50
2019-05-19T03:27:33.489Z,73.30
2019-05-19T03:30:20.217Z,73.50
2019-05-19T03:32:50.558Z,72.90
2019-05-19T03:35:19.366Z,74.50
2019-05-19T03:37:48.037Z,74.30
2019-05-19T03:40:22.434Z,74.00
2019-05-19T03:42:51.535Z,74.50
2019-05-19T03:45:20.317Z,73.90
2019-05-19T03:47:49.014Z,72.20
2019-05-19T03:50:17.922Z,71.70
2019-05-19T03:52:46.625Z,71.60
2019-05-19T03:55:15.547Z,72.60
2019-05-19T03:57:44.247Z,71.70
2019-05-19T04:00:13.072Z,72.90
2019-05-19T04:02:41.762Z,72.30
2019-05-19T04:05:10.639Z,72.60
2019-05-19T04:07:39.362Z,72.20
2019-05-19T04:10:08.627Z,72.50
2019-05-19T04:12:37.338Z,71.10
2019-05-19T04:15:07.621Z,73.90
2019-05-19T04:17:36.317Z,73.30
2019-05-19T04:20:06.446Z,70.20
2019-05-19T04:22:35.145Z,70.70
2019-05-19T04:25:03.954Z,70.30
2019-05-19T04:27:32.663Z,68.00
2019-05-19T04:30:01.370Z,66.80
2019-05-19T04:32:30.092Z,66.70
2019-05-19T04:34:58.787Z,65.80
2019-05-19T04:37:27.510Z,65.20
2019-05-19T04:39:56.207Z,66.20
2019-05-19T04:42:24.916Z,67.70
2019-05-19T04:44:53.629Z,68.20
2019-05-19T04:47:22.329Z,70.50
2019-05-19T04:49:51.115Z,68.70
2019-05-19T04:52:19.821Z,66.70
2019-05-19T04:54:48.609Z,69.60
2019-05-19T04:57:17.307Z,68.60
2019-05-19T04:59:46.017Z,68.50
2019-05-19T05:02:14.777Z,67.50
2019-05-19T05:04:43.502Z,64.80
2019-05-19T05:07:12.205Z,65.10
2019-05-19T05:09:40.986Z,65.30
2019-05-19T05:12:09.685Z,65.20
2019-05-19T05:14:38.393Z,67.40
2019-05-19T05:17:07.103Z,69.20
2019-05-19T05:19:35.813Z,70.30
2019-05-19T05:22:04.604Z,65.70
2019-05-19T05:24:33.388Z,65.10
2019-05-19T05:27:02.105Z,66.50
2019-05-19T05:29:30.798Z,67.90
2019-05-19T05:31:59.495Z,70.90
2019-05-19T05:34:28.213Z,72.00
2019-05-19T05:36:56.992Z,72.00
2019-05-19T05:39:25.714Z,72.20
2019-05-19T05:41:54.414Z,71.50
2019-05-19T05:44:23.121Z,71.70
2019-05-19T05:46:51.827Z,68.00
2019-05-19T05:49:20.552Z,70.70
2019-05-19T05:51:49.268Z,69.00
2019-05-19T05:54:18.042Z,69.80
2019-05-19T05:56:46.741Z,69.90
2019-05-19T05:59:15.455Z,69.70
2019-05-19T06:01:44.163Z,70.40
2019-05-19T06:04:12.954Z,68.10
2019-05-19T06:06:41.658Z,69.80
2019-05-19T06:09:10.365Z,71.10
2019-05-19T06:11:39.097Z,72.80
2019-05-19T06:14:07.784Z,73.10
2019-05-19T06:16:36.768Z,73.30
2019-05-19T06:19:05.550Z,74.60
2019-05-19T06:21:34.249Z,75.20
2019-05-19T06:24:02.989Z,76.00
2019-05-19T06:26:31.708Z,75.00
2019-05-19T06:29:00.425Z,76.00
2019-05-19T06:31:29.120Z,74.60
2019-05-19T06:33:57.826Z,70.70
2019-05-19T06:36:26.567Z,68.90
2019-05-19T06:38:55.363Z,69.20
2019-05-19T06:41:24.035Z,68.90
2019-05-19T06:43:52.822Z,68.30
2019-05-19T06:46:21.522Z,67.80
2019-05-19T06:48:50.234Z,67.50
2019-05-19T06:51:18.934Z,69.40
2019-05-19T06:53:47.724Z,70.50
2019-05-19T06:56:35.706Z,69.60
2019-05-19T06:59:04.417Z,72.10
2019-05-19T07:01:33.139Z,70.30
2019-05-19T07:04:01.921Z,70.90
2019-05-19T07:06:30.689Z,70.50
2019-05-19T07:08:59.469Z,69.60
2019-05-19T07:11:28.195Z,69.10
2019-05-19T07:13:56.973Z,68.80
2019-05-19T07:16:25.685Z,70.80
2019-05-19T07:18:54.417Z,69.90
2019-05-19T07:21:23.189Z,72.20
2019-05-19T07:23:51.905Z,72.40
2019-05-19T07:26:20.611Z,72.70
2019-05-19T07:28:49.425Z,73.30
2019-05-19T07:31:18.130Z,71.10
2019-05-19T07:33:46.954Z,70.00
2019-05-19T07:36:15.633Z,72.70
2019-05-19T07:38:44.332Z,71.60
2019-05-19T07:41:13.042Z,70.60
2019-05-19T07:43:41.749Z,68.80
2019-05-19T07:46:10.550Z,69.50
2019-05-19T07:48:39.269Z,69.40
2019-05-19T07:51:08.066Z,68.80
2019-05-19T07:53:42.963Z,68.30
2019-05-19T07:56:07.143Z,69.90
2019-05-19T07:58:35.849Z,69.00
2019-05-19T08:01:04.626Z,70.30
2019-05-19T08:03:33.350Z,70.50
2019-05-19T08:06:02.146Z,70.30
2019-05-19T08:08:31.136Z,71.60
2019-05-19T08:10:59.904Z,71.50
2019-05-19T08:13:28.605Z,73.20
2019-05-19T08:15:57.325Z,75.20
2019-05-19T08:18:26.037Z,75.30
2019-05-19T08:20:54.825Z,75.80
2019-05-19T08:23:23.609Z,75.70
2019-05-19T08:25:52.333Z,78.40
2019-05-19T08:28:21.033Z,77.00
2019-05-19T08:30:49.741Z,77.80
2019-05-19T08:33:18.564Z,78.20
2019-05-19T08:35:47.310Z,79.10
2019-05-19T08:38:16.089Z,80.80
2019-05-19T08:40:44.929Z,77.80
2019-05-19T08:43:13.609Z,78.20
2019-05-19T08:45:42.385Z,82.20
2019-05-19T08:48:11.100Z,81.80
2019-05-19T08:50:39.870Z,81.60
2019-05-19T08:53:08.574Z,80.70
2019-05-19T08:55:37.292Z,82.90
2019-05-19T08:58:06.001Z,82.60
2019-05-19T09:00:38.261Z,83.40
2019-05-19T09:03:05.242Z,85.50
2019-05-19T09:05:33.893Z,83.60
2019-05-19T09:08:02.601Z,84.20
2019-05-19T09:10:31.389Z,84.80
2019-05-19T09:13:00.157Z,85.50
2019-05-19T09:15:28.872Z,86.90
2019-05-19T09:17:57.591Z,84.70
2019-05-19T09:20:26.365Z,87.50
2019-05-19T09:22:55.065Z,87.60
2019-05-19T09:25:23.771Z,87.40
2019-05-19T09:27:52.753Z,88.60
2019-05-19T09:30:21.454Z,87.90
2019-05-19T09:32:50.245Z,87.60
2019-05-19T09:35:19.136Z,86.40
2019-05-19T09:37:47.845Z,87.90
2019-05-19T09:40:16.638Z,87.30
2019-05-19T09:42:45.349Z,87.60
2019-05-19T09:45:15.641Z,86.10
2019-05-19T09:47:44.286Z,87.70
2019-05-19T09:50:13.154Z,88.30
2019-05-19T09:52:41.866Z,90.20
2019-05-19T09:55:10.873Z,90.10
2019-05-19T09:57:39.584Z,90.40
2019-05-19T10:00:10.507Z,90.20
2019-05-19T10:02:39.291Z,89.90
2019-05-19T10:05:08.093Z,90.40
2019-05-19T10:07:36.824Z,90.40
2019-05-19T10:10:08.641Z,90.10
2019-05-19T10:12:37.401Z,90.50
2019-05-19T10:15:07.310Z,89.80
2019-05-19T10:17:36.021Z,90.20
2019-05-19T10:20:07.655Z,89.80
2019-05-19T10:22:36.419Z,87.70
2019-05-19T10:25:20.848Z,86.70
2019-05-19T10:27:37.752Z,87.50
2019-05-19T10:30:08.501Z,88.70
2019-05-19T10:32:37.206Z,87.80
2019-05-19T10:35:06.203Z,87.60
2019-05-19T10:37:34.922Z,85.90
2019-05-19T10:40:04.617Z,84.20
2019-05-19T10:42:33.533Z,85.40
2019-05-19T10:45:02.245Z,85.90
2019-05-19T10:47:30.949Z,84.90
2019-05-19T10:49:59.734Z,82.00
2019-05-19T10:52:28.444Z,79.80
2019-05-19T10:54:57.153Z,75.10
2019-05-19T10:57:25.933Z,70.60
2019-05-19T10:59:54.660Z,69.30
2019-05-19T11:02:23.376Z,60.30
2019-05-19T11:04:52.149Z,54.30
2019-05-19T11:07:20.865Z,54.50
2019-05-19T11:09:49.576Z,54.00
2019-05-19T11:12:18.276Z,55.40
2019-05-19T11:14:46.994Z,51.30
2019-05-19T11:17:16.194Z,48.90
2019-05-19T11:19:44.969Z,53.00
2019-05-19T11:22:13.692Z,56.90
2019-05-19T11:24:42.454Z,57.60
2019-05-19T11:27:11.217Z,60.00
2019-05-19T11:29:39.919Z,58.40
2019-05-19T11:32:08.641Z,59.10
2019-05-19T11:34:37.345Z,58.80
2019-05-19T11:37:07.458Z,64.20
2019-05-19T11:39:36.325Z,62.10
2019-05-19T11:42:05.113Z,62.30
2019-05-19T11:44:33.913Z,62.20
2019-05-19T11:47:02.618Z,60.40
2019-05-19T11:49:31.387Z,59.60
2019-05-19T11:52:00.206Z,61.40
2019-05-19T11:54:28.883Z,63.10
2019-05-19T11:56:57.598Z,63.00
2019-05-19T11:59:26.385Z,61.20
2019-05-19T12:01:55.163Z,58.30
2019-05-19T12:04:23.953Z,58.80
2019-05-19T12:06:52.735Z,59.60
2019-05-19T12:09:21.559Z,60.10
2019-05-19T12:11:50.257Z,60.00
2019-05-19T12:14:18.982Z,60.00
2019-05-19T12:16:47.771Z,53.30
2019-05-19T12:19:16.444Z,52.70
2019-05-19T12:21:45.166Z,51.10
2019-05-19T12:24:13.952Z,49.20
2019-05-19T12:26:42.740Z,48.10
2019-05-19T12:29:11.444Z,50.50
2019-05-19T12:31:40.214Z,42.70
2019-05-19T12:34:08.930Z,44.50
2019-05-19T12:36:37.692Z,43.20
2019-05-19T12:39:07.221Z,47.30
2019-05-19T12:41:35.944Z,46.00
2019-05-19T12:44:04.722Z,48.00
2019-05-19T12:46:33.501Z,50.80
2019-05-19T12:49:02.214Z,49.10
2019-05-19T12:51:30.945Z,52.10
2019-05-19T12:53:59.641Z,50.50
2019-05-19T12:56:39.145Z,47.90
2019-05-19T12:58:59.013Z,48.80
2019-05-19T13:01:28.321Z,48.80
2019-05-19T13:03:57.048Z,48.80
2019-05-19T13:06:25.753Z,47.60
2019-05-19T13:08:54.525Z,49.20
2019-05-19T13:11:23.249Z,48.20
2019-05-19T13:13:52.022Z,47.40
2019-05-19T13:16:20.742Z,48.80
2019-05-19T13:18:49.514Z,51.10
2019-05-19T13:21:18.264Z,55.80
2019-05-19T13:23:47.006Z,52.20
2019-05-19T13:26:15.779Z,52.80
2019-05-19T13:28:44.489Z,51.90
2019-05-19T13:31:13.293Z,52.40
2019-05-19T13:33:42.001Z,52.00
2019-05-19T13:36:10.782Z,52.80
2019-05-19T13:38:39.571Z,55.10
2019-05-19T13:41:08.278Z,54.80
2019-05-19T13:43:36.975Z,54.80
2019-05-19T13:46:05.672Z,55.60
2019-05-19T13:48:34.430Z,56.80
2019-05-19T13:51:03.175Z,57.90
2019-05-19T13:53:31.873Z,55.30
2019-05-19T13:56:00.573Z,55.40
2019-05-19T13:58:29.429Z,55.00
2019-05-19T14:00:58.106Z,54.00
2019-05-19T14:03:26.870Z,54.00
2019-05-19T14:05:55.665Z,52.90
2019-05-19T14:08:24.368Z,51.50
2019-05-19T14:10:53.077Z,53.70
2019-05-19T14:13:21.809Z,54.20
2019-05-19T14:15:50.510Z,55.70
2019-05-19T14:18:19.341Z,56.10
2019-05-19T14:20:48.105Z,56.70
2019-05-19T14:23:16.842Z,58.20
2019-05-19T14:25:45.537Z,58.00
2019-05-19T14:28:14.336Z,58.30
2019-05-19T14:30:43.113Z,58.00
2019-05-19T14:33:11.814Z,57.20
2019-05-19T14:35:40.601Z,57.20
2019-05-19T14:38:09.360Z,55.80
2019-05-19T14:40:38.097Z,54.40
2019-05-19T14:43:06.864Z,55.10
2019-05-19T14:45:35.645Z,57.20
2019-05-19T14:48:04.442Z,57.10
2019-05-19T14:50:33.209Z,56.10
2019-05-19T14:53:02.000Z,55.40
2019-05-19T14:55:30.776Z,53.70
2019-05-19T14:57:59.507Z,54.80
2019-05-19T15:00:28.298Z,53.70
2019-05-19T15:02:57.007Z,55.10
2019-05-19T15:05:25.726Z,52.80
2019-05-19T15:07:54.548Z,54.40
2019-05-19T15:10:23.360Z,53.70
2019-05-19T15:12:52.168Z,53.60
2019-05-19T15:15:21.077Z,53.30
2019-05-19T15:17:49.780Z,54.00
2019-05-19T15:20:19.094Z,55.10
2019-05-19T15:22:47.829Z,53.60
2019-05-19T15:25:16.729Z,54.00
2019-05-19T15:27:59.253Z,54.20
2019-05-19T15:30:16.245Z,54.80
2019-05-19T15:32:45.044Z,53.40
2019-05-19T15:35:13.925Z,56.60
2019-05-19T15:37:42.721Z,55.20
2019-05-19T15:40:11.590Z,54.60
2019-05-19T15:42:40.497Z,54.80
2019-05-19T15:45:10.790Z,54.40
2019-05-19T15:47:39.508Z,55.70
2019-05-19T15:50:08.890Z,55.30
2019-05-19T15:52:37.585Z,55.30
2019-05-19T15:55:06.755Z,55.60
2019-05-19T15:57:35.736Z,55.30
2019-05-19T16:00:07.216Z,55.20
2019-05-19T16:02:36.288Z,53.70
2019-05-19T16:05:06.636Z,52.80
2019-05-19T16:07:35.337Z,53.70
2019-05-19T16:10:06.996Z,53.50
2019-05-19T16:12:35.685Z,54.40
2019-05-19T16:15:06.417Z,54.70
2019-05-19T16:17:35.204Z,53.10
2019-05-19T16:20:07.576Z,52.30
2019-05-19T16:22:36.370Z,52.50
2019-05-19T16:25:08.055Z,53.80
2019-05-19T16:27:36.760Z,52.60
2019-05-19T16:30:09.824Z,53.30
2019-05-19T16:32:38.544Z,53.00
2019-05-19T16:35:07.950Z,53.40
2019-05-19T16:37:36.737Z,53.30
2019-05-19T16:40:06.281Z,54.40
2019-05-19T16:42:35.086Z,54.70
2019-05-19T16:45:04.988Z,55.30
2019-05-19T16:47:33.759Z,56.30
2019-05-19T16:50:02.552Z,57.60
2019-05-19T16:52:31.406Z,58.70
2019-05-19T16:55:17.933Z,58.80
2019-05-19T16:57:46.705Z,58.60
2019-05-19T17:00:15.582Z,58.60
2019-05-19T17:02:44.301Z,58.20
2019-05-19T17:05:13.371Z,57.30
2019-05-19T17:07:42.092Z,56.80
2019-05-19T17:10:11.076Z,57.50
2019-05-19T17:12:39.807Z,57.00
2019-05-19T17:15:09.122Z,57.70
2019-05-19T17:17:37.909Z,58.10
2019-05-19T17:20:07.925Z,57.60
2019-05-19T17:22:36.628Z,57.90
2019-05-19T17:25:08.183Z,57.70
2019-05-19T17:27:36.980Z,56.80
2019-05-19T17:30:10.810Z,57.50
2019-05-19T17:32:39.547Z,56.60
2019-05-19T17:35:08.874Z,56.00
2019-05-19T17:37:37.633Z,56.40
2019-05-19T17:40:06.758Z,56.20
2019-05-19T17:42:37.274Z,57.50
2019-05-19T17:45:07.172Z,58.00
2019-05-19T17:47:36.081Z,57.70
2019-05-19T17:50:05.544Z,58.40
2019-05-19T17:52:34.265Z,59.10
2019-05-19T17:55:03.250Z,59.50
2019-05-19T17:57:33.644Z,59.80
2019-05-19T18:00:03.527Z,60.40
2019-05-19T18:02:32.252Z,61.00
2019-05-19T18:05:01.072Z,61.50
2019-05-19T18:07:29.804Z,61.40
2019-05-19T18:09:58.578Z,62.00
2019-05-19T18:12:27.373Z,62.30
2019-05-19T18:14:56.098Z,62.80
2019-05-19T18:17:24.880Z,63.30
2019-05-19T18:19:53.585Z,63.00
2019-05-19T18:22:22.413Z,63.30
2019-05-19T18:24:51.084Z,63.00
2019-05-19T18:27:19.865Z,63.50
2019-05-19T18:29:48.654Z,63.20
2019-05-19T18:32:17.445Z,63.20
2019-05-19T18:34:46.153Z,64.10
2019-05-19T18:37:14.941Z,64.20
2019-05-19T18:39:43.734Z,64.30
2019-05-19T18:42:12.474Z,64.70
2019-05-19T18:44:41.163Z,65.40
2019-05-19T18:47:09.949Z,64.70
2019-05-19T18:49:38.688Z,65.90
2019-05-19T18:52:07.437Z,66.40
2019-05-19T18:54:36.234Z,66.70
2019-05-19T18:57:04.951Z,67.20
2019-05-19T18:59:46.494Z,68.80
2019-05-19T19:02:04.278Z,69.00
2019-05-19T19:04:33.091Z,68.90
2019-05-19T19:07:01.867Z,70.20
2019-05-19T19:09:30.689Z,71.40
2019-05-19T19:11:59.480Z,72.40
2019-05-19T19:14:28.275Z,73.10
2019-05-19T19:16:56.998Z,73.10
2019-05-19T19:19:25.707Z,74.50
2019-05-19T19:21:54.518Z,74.60
2019-05-19T19:24:23.308Z,75.50
2019-05-19T19:26:52.031Z,75.30
2019-05-19T19:29:20.816Z,76.20
2019-05-19T19:31:49.664Z,75.80
2019-05-19T19:34:18.380Z,76.60
2019-05-19T19:36:47.164Z,76.50
2019-05-19T19:39:15.923Z,76.90
2019-05-19T19:41:44.785Z,77.30
2019-05-19T19:44:13.521Z,77.00
2019-05-19T19:46:42.312Z,76.00
2019-05-19T19:49:11.021Z,77.00
2019-05-19T19:51:39.812Z,77.10
2019-05-19T19:54:08.660Z,76.40
2019-05-19T19:56:37.385Z,77.30
2019-05-19T19:59:06.083Z,76.90
2019-05-19T20:01:34.858Z,78.20
2019-05-19T20:04:03.645Z,79.00
2019-05-19T20:06:32.408Z,79.60
2019-05-19T20:09:01.201Z,79.40
2019-05-19T20:11:29.901Z,79.90
2019-05-19T20:13:58.649Z,81.10
2019-05-19T20:16:27.330Z,81.70
2019-05-19T20:18:56.102Z,82.20
2019-05-19T20:21:24.918Z,80.90
2019-05-19T20:23:53.692Z,81.90
2019-05-19T20:26:22.481Z,83.40
2019-05-19T20:28:51.186Z,81.60
2019-05-19T20:31:19.886Z,82.90
2019-05-19T20:33:48.608Z,82.70
2019-05-19T20:36:17.305Z,82.30
2019-05-19T20:38:46.141Z,83.20
2019-05-19T20:41:14.848Z,84.30
2019-05-19T20:43:43.628Z,85.30
2019-05-19T20:46:12.403Z,86.40
2019-05-19T20:48:41.173Z,85.60
2019-05-19T20:51:09.983Z,85.80
2019-05-19T20:53:38.749Z,84.00
2019-05-19T20:56:07.490Z,83.10
2019-05-19T20:58:36.188Z,84.50
2019-05-19T21:01:04.960Z,84.80
2019-05-19T21:03:33.695Z,86.00
2019-05-19T21:06:02.401Z,84.60
2019-05-19T21:08:31.123Z,86.30
2019-05-19T21:11:00.418Z,86.80
2019-05-19T21:13:29.195Z,87.10
2019-05-19T21:15:58.894Z,86.60
2019-05-19T21:18:27.597Z,87.30
2019-05-19T21:20:56.309Z,86.70
2019-05-19T21:23:25.091Z,86.40
2019-05-19T21:25:53.791Z,84.60
2019-05-19T21:28:22.563Z,84.20
2019-05-19T21:31:04.827Z,86.00
2019-05-19T21:33:21.631Z,88.50
2019-05-19T21:35:50.402Z,88.00
2019-05-19T21:38:19.097Z,87.00
2019-05-19T21:40:47.805Z,88.50
2019-05-19T21:43:16.608Z,87.50
2019-05-19T21:45:45.304Z,87.30
2019-05-19T21:48:14.086Z,88.10
2019-05-19T21:50:42.858Z,86.70
2019-05-19T21:53:11.551Z,89.70
2019-05-19T21:55:40.270Z,87.20
2019-05-19T21:58:09.038Z,87.30
2019-05-19T22:00:38.023Z,89.00
2019-05-19T22:03:06.731Z,90.20
2019-05-19T22:05:35.436Z,90.20
2019-05-19T22:08:05.769Z,90.20
2019-05-19T22:10:34.581Z,90.00
2019-05-19T22:13:03.298Z,89.80
2019-05-19T22:15:32.079Z,90.70
2019-05-19T22:18:00.789Z,90.70
2019-05-19T22:20:29.516Z,90.20
2019-05-19T22:22:58.246Z,90.90
2019-05-19T22:25:26.948Z,90.80
2019-05-19T22:27:55.636Z,91.60
2019-05-19T22:30:24.371Z,90.80
2019-05-19T22:32:53.668Z,90.40
2019-05-19T22:35:22.394Z,90.80
2019-05-19T22:37:51.096Z,90.40
2019-05-19T22:40:19.808Z,91.20
2019-05-19T22:42:48.577Z,90.80
2019-05-19T22:45:17.294Z,90.50
2019-05-19T22:47:46.013Z,90.30
2019-05-19T22:50:14.918Z,91.40
2019-05-19T22:52:43.749Z,91.90
2019-05-19T22:55:12.933Z,91.40
2019-05-19T22:57:41.639Z,90.90
2019-05-19T23:00:12.314Z,91.80
2019-05-19T23:02:41.019Z,91.10
2019-05-19T23:05:10.305Z,92.30
2019-05-19T23:07:39.011Z,92.60
2019-05-19T23:10:08.360Z,92.60
2019-05-19T23:12:37.074Z,92.00
2019-05-19T23:15:09.769Z,92.20
2019-05-19T23:17:38.503Z,91.20
2019-05-19T23:20:07.390Z,91.60
2019-05-19T23:22:36.098Z,91.50
2019-05-19T23:25:06.123Z,91.80
2019-05-19T23:27:34.827Z,91.00
2019-05-19T23:30:05.298Z,92.30
2019-05-19T23:32:34.073Z,91.90
2019-05-19T23:35:02.853Z,92.00
2019-05-19T23:37:31.577Z,92.30
2019-05-19T23:40:00.364Z,91.50
2019-05-19T23:42:29.058Z,92.00
2019-05-19T23:44:57.755Z,91.60
2019-05-19T23:47:26.536Z,92.40
2019-05-19T23:49:55.256Z,91.40
2019-05-19T23:52:24.027Z,91.50
2019-05-19T23:54:52.728Z,91.80
2019-05-19T23:57:21.448Z,92.70
2019-05-19T23:59:50.136Z,92.00
